sensor_id;sensor_type;location;lat;lon;timestamp;P1;durP1;ratioP1;P2;durP2;ratioP2
10465;SDS011;5280;42.600;23.556;2023-04-01T00:00:27;3.90;;;2.53;;
10465;SDS011;5280;42.600;23.556;2023-04-01T00:02:54;2.33;;;2.00;;
10465;SDS011;5280;42.600;23.556;2023-04-01T00:05:21;3.40;;;1.97;;
10465;SDS011;5280;42.600;23.556;2023-04-01T00:07:52;5.37;;;2.07;;
10465;SDS011;5280;42.600;23.556;2023-04-01T00:10:18;3.83;;;2.20;;
10465;SDS011;5280;42.600;23.556;2023-04-01T00:12:45;2.30;;;2.00;;
10465;SDS011;5280;42.600;23.556;2023-04-01T00:15:14;3.43;;;2.27;;
10465;SDS011;5280;42.600;23.556;2023-04-01T00:17:41;8.13;;;2.57;;
10465;SDS011;5280;42.600;23.556;2023-04-01T00:20:08;3.57;;;2.00;;
10465;SDS011;5280;42.600;23.556;2023-04-01T00:22:35;2.97;;;1.90;;
10465;SDS011;5280;42.600;23.556;2023-04-01T00:25:02;3.13;;;1.80;;
10465;SDS011;5280;42.600;23.556;2023-04-01T00:27:30;2.77;;;1.90;;
10465;SDS011;5280;42.600;23.556;2023-04-01T00:29:57;4.33;;;1.90;;
10465;SDS011;5280;42.600;23.556;2023-04-01T00:32:25;3.17;;;1.80;;
10465;SDS011;5280;42.600;23.556;2023-04-01T00:34:52;3.40;;;1.73;;
10465;SDS011;5280;42.600;23.556;2023-04-01T00:37:19;4.80;;;1.80;;
10465;SDS011;5280;42.600;23.556;2023-04-01T00:39:47;2.47;;;1.97;;
10465;SDS011;5280;42.600;23.556;2023-04-01T00:42:14;2.93;;;1.67;;
10465;SDS011;5280;42.600;23.556;2023-04-01T00:44:41;2.60;;;1.60;;
10465;SDS011;5280;42.600;23.556;2023-04-01T00:47:09;3.33;;;2.00;;
10465;SDS011;5280;42.600;23.556;2023-04-01T00:49:39;3.73;;;2.03;;
10465;SDS011;5280;42.600;23.556;2023-04-01T00:52:09;4.03;;;1.97;;
10465;SDS011;5280;42.600;23.556;2023-04-01T00:54:38;5.10;;;1.77;;
10465;SDS011;5280;42.600;23.556;2023-04-01T00:57:10;6.77;;;1.93;;
10465;SDS011;5280;42.600;23.556;2023-04-01T00:59:40;2.93;;;1.80;;
10465;SDS011;5280;42.600;23.556;2023-04-01T01:02:10;3.60;;;1.60;;
10465;SDS011;5280;42.600;23.556;2023-04-01T01:04:42;4.73;;;1.73;;
10465;SDS011;5280;42.600;23.556;2023-04-01T01:07:12;6.00;;;1.83;;
10465;SDS011;5280;42.600;23.556;2023-04-01T01:09:55;3.53;;;1.93;;
10465;SDS011;5280;42.600;23.556;2023-04-01T01:12:30;3.53;;;1.73;;
10465;SDS011;5280;42.600;23.556;2023-04-01T01:15:07;3.53;;;1.90;;
10465;SDS011;5280;42.600;23.556;2023-04-01T01:17:41;6.33;;;1.90;;
10465;SDS011;5280;42.600;23.556;2023-04-01T01:20:19;3.63;;;1.87;;
10465;SDS011;5280;42.600;23.556;2023-04-01T01:29:08;4.20;;;1.80;;
10465;SDS011;5280;42.600;23.556;2023-04-01T01:31:46;2.13;;;1.60;;
10465;SDS011;5280;42.600;23.556;2023-04-01T01:34:20;4.30;;;1.80;;
10465;SDS011;5280;42.600;23.556;2023-04-01T01:36:57;4.90;;;1.93;;
10465;SDS011;5280;42.600;23.556;2023-04-01T01:39:28;4.90;;;1.73;;
10465;SDS011;5280;42.600;23.556;2023-04-01T01:41:58;3.13;;;1.90;;
10465;SDS011;5280;42.600;23.556;2023-04-01T01:44:29;4.23;;;1.90;;
10465;SDS011;5280;42.600;23.556;2023-04-01T01:46:58;4.37;;;1.87;;
10465;SDS011;5280;42.600;23.556;2023-04-01T01:49:26;4.83;;;1.97;;
10465;SDS011;5280;42.600;23.556;2023-04-01T01:51:56;4.07;;;1.60;;
10465;SDS011;5280;42.600;23.556;2023-04-01T01:54:23;3.93;;;1.90;;
10465;SDS011;5280;42.600;23.556;2023-04-01T01:56:51;5.67;;;2.00;;
10465;SDS011;5280;42.600;23.556;2023-04-01T01:59:21;4.53;;;1.70;;
10465;SDS011;5280;42.600;23.556;2023-04-01T02:01:51;4.73;;;1.67;;
10465;SDS011;5280;42.600;23.556;2023-04-01T02:04:21;2.20;;;1.60;;
10465;SDS011;5280;42.600;23.556;2023-04-01T02:06:50;1.60;;;1.50;;
10465;SDS011;5280;42.600;23.556;2023-04-01T02:09:23;3.17;;;1.70;;
10465;SDS011;5280;42.600;23.556;2023-04-01T02:11:51;3.03;;;1.80;;
10465;SDS011;5280;42.600;23.556;2023-04-01T02:14:22;5.00;;;2.13;;
10465;SDS011;5280;42.600;23.556;2023-04-01T02:16:51;3.03;;;1.80;;
10465;SDS011;5280;42.600;23.556;2023-04-01T02:19:22;2.00;;;1.50;;
10465;SDS011;5280;42.600;23.556;2023-04-01T02:21:55;2.43;;;1.23;;
10465;SDS011;5280;42.600;23.556;2023-04-01T02:24:27;4.53;;;1.30;;
10465;SDS011;5280;42.600;23.556;2023-04-01T02:26:58;3.70;;;1.17;;
10465;SDS011;5280;42.600;23.556;2023-04-01T02:29:25;4.63;;;1.40;;
10465;SDS011;5280;42.600;23.556;2023-04-01T02:31:52;3.20;;;1.33;;
10465;SDS011;5280;42.600;23.556;2023-04-01T02:34:20;5.13;;;1.27;;
10465;SDS011;5280;42.600;23.556;2023-04-01T02:36:49;1.67;;;1.27;;
10465;SDS011;5280;42.600;23.556;2023-04-01T02:39:17;4.00;;;1.70;;
10465;SDS011;5280;42.600;23.556;2023-04-01T02:41:46;5.03;;;1.43;;
10465;SDS011;5280;42.600;23.556;2023-04-01T02:44:13;4.40;;;1.30;;
10465;SDS011;5280;42.600;23.556;2023-04-01T02:46:41;4.43;;;1.20;;
10465;SDS011;5280;42.600;23.556;2023-04-01T02:49:08;1.57;;;1.17;;
10465;SDS011;5280;42.600;23.556;2023-04-01T02:51:35;5.83;;;1.73;;
10465;SDS011;5280;42.600;23.556;2023-04-01T02:54:02;2.10;;;1.40;;
10465;SDS011;5280;42.600;23.556;2023-04-01T02:56:29;1.50;;;1.40;;
10465;SDS011;5280;42.600;23.556;2023-04-01T02:58:57;5.10;;;1.30;;
10465;SDS011;5280;42.600;23.556;2023-04-01T03:01:24;2.80;;;1.30;;
10465;SDS011;5280;42.600;23.556;2023-04-01T03:03:51;2.27;;;1.30;;
10465;SDS011;5280;42.600;23.556;2023-04-01T03:06:18;7.57;;;1.80;;
10465;SDS011;5280;42.600;23.556;2023-04-01T03:08:44;2.47;;;1.60;;
10465;SDS011;5280;42.600;23.556;2023-04-01T03:11:11;2.47;;;1.30;;
10465;SDS011;5280;42.600;23.556;2023-04-01T03:13:38;3.47;;;1.40;;
10465;SDS011;5280;42.600;23.556;2023-04-01T03:16:06;3.37;;;1.87;;
10465;SDS011;5280;42.600;23.556;2023-04-01T03:18:33;2.63;;;1.57;;
10465;SDS011;5280;42.600;23.556;2023-04-01T03:21:11;3.90;;;1.20;;
10465;SDS011;5280;42.600;23.556;2023-04-01T03:23:39;8.23;;;1.50;;
10465;SDS011;5280;42.600;23.556;2023-04-01T03:26:06;4.13;;;1.20;;
10465;SDS011;5280;42.600;23.556;2023-04-01T03:28:33;4.83;;;1.90;;
10465;SDS011;5280;42.600;23.556;2023-04-01T03:31:00;4.37;;;1.40;;
10465;SDS011;5280;42.600;23.556;2023-04-01T03:33:28;2.03;;;1.80;;
10465;SDS011;5280;42.600;23.556;2023-04-01T03:35:55;6.53;;;2.07;;
10465;SDS011;5280;42.600;23.556;2023-04-01T03:38:22;5.90;;;1.80;;
10465;SDS011;5280;42.600;23.556;2023-04-01T03:40:48;2.23;;;2.03;;
10465;SDS011;5280;42.600;23.556;2023-04-01T03:43:15;3.60;;;2.40;;
10465;SDS011;5280;42.600;23.556;2023-04-01T03:45:46;4.80;;;2.20;;
10465;SDS011;5280;42.600;23.556;2023-04-01T03:48:13;4.97;;;2.50;;
10465;SDS011;5280;42.600;23.556;2023-04-01T03:50:42;5.30;;;2.50;;
10465;SDS011;5280;42.600;23.556;2023-04-01T03:53:10;3.07;;;1.87;;
10465;SDS011;5280;42.600;23.556;2023-04-01T03:55:37;6.40;;;2.00;;
10465;SDS011;5280;42.600;23.556;2023-04-01T03:58:04;3.47;;;1.80;;
10465;SDS011;5280;42.600;23.556;2023-04-01T04:00:31;3.83;;;1.77;;
10465;SDS011;5280;42.600;23.556;2023-04-01T04:02:58;5.87;;;2.27;;
10465;SDS011;5280;42.600;23.556;2023-04-01T04:05:25;8.57;;;2.33;;
10465;SDS011;5280;42.600;23.556;2023-04-01T04:07:54;4.50;;;2.43;;
10465;SDS011;5280;42.600;23.556;2023-04-01T04:10:21;6.77;;;2.30;;
10465;SDS011;5280;42.600;23.556;2023-04-01T04:12:50;7.77;;;2.40;;
10465;SDS011;5280;42.600;23.556;2023-04-01T04:15:17;2.47;;;1.83;;
10465;SDS011;5280;42.600;23.556;2023-04-01T04:17:44;4.03;;;2.10;;
10465;SDS011;5280;42.600;23.556;2023-04-01T04:20:11;4.60;;;1.90;;
10465;SDS011;5280;42.600;23.556;2023-04-01T04:22:39;3.87;;;2.13;;
10465;SDS011;5280;42.600;23.556;2023-04-01T04:25:07;4.40;;;2.10;;
10465;SDS011;5280;42.600;23.556;2023-04-01T04:27:35;2.77;;;1.90;;
10465;SDS011;5280;42.600;23.556;2023-04-01T04:30:02;3.40;;;1.97;;
10465;SDS011;5280;42.600;23.556;2023-04-01T04:32:31;4.00;;;1.73;;
10465;SDS011;5280;42.600;23.556;2023-04-01T04:34:58;5.67;;;2.47;;
10465;SDS011;5280;42.600;23.556;2023-04-01T04:37:25;2.97;;;1.93;;
10465;SDS011;5280;42.600;23.556;2023-04-01T04:39:52;4.73;;;2.03;;
10465;SDS011;5280;42.600;23.556;2023-04-01T04:42:20;6.60;;;2.73;;
10465;SDS011;5280;42.600;23.556;2023-04-01T04:44:46;3.60;;;2.00;;
10465;SDS011;5280;42.600;23.556;2023-04-01T04:47:13;5.43;;;2.40;;
10465;SDS011;5280;42.600;23.556;2023-04-01T04:49:40;4.70;;;1.97;;
10465;SDS011;5280;42.600;23.556;2023-04-01T04:52:06;4.27;;;1.83;;
10465;SDS011;5280;42.600;23.556;2023-04-01T04:54:36;4.00;;;2.60;;
10465;SDS011;5280;42.600;23.556;2023-04-01T04:57:03;4.13;;;1.83;;
10465;SDS011;5280;42.600;23.556;2023-04-01T04:59:32;4.40;;;2.10;;
10465;SDS011;5280;42.600;23.556;2023-04-01T05:01:58;3.80;;;2.00;;
10465;SDS011;5280;42.600;23.556;2023-04-01T05:04:25;5.00;;;2.20;;
10465;SDS011;5280;42.600;23.556;2023-04-01T05:06:52;5.17;;;1.83;;
10465;SDS011;5280;42.600;23.556;2023-04-01T05:09:19;3.00;;;1.70;;
10465;SDS011;5280;42.600;23.556;2023-04-01T05:11:45;3.57;;;1.90;;
10465;SDS011;5280;42.600;23.556;2023-04-01T05:14:13;2.73;;;1.90;;
10465;SDS011;5280;42.600;23.556;2023-04-01T05:16:41;3.63;;;1.93;;
10465;SDS011;5280;42.600;23.556;2023-04-01T05:19:08;6.07;;;2.57;;
10465;SDS011;5280;42.600;23.556;2023-04-01T05:21:35;3.47;;;1.97;;
10465;SDS011;5280;42.600;23.556;2023-04-01T05:24:02;4.17;;;1.80;;
10465;SDS011;5280;42.600;23.556;2023-04-01T05:26:29;4.57;;;2.30;;
10465;SDS011;5280;42.600;23.556;2023-04-01T05:28:55;4.77;;;2.20;;
10465;SDS011;5280;42.600;23.556;2023-04-01T05:31:22;3.03;;;2.33;;
10465;SDS011;5280;42.600;23.556;2023-04-01T05:33:52;4.13;;;2.20;;
10465;SDS011;5280;42.600;23.556;2023-04-01T05:36:19;6.67;;;2.47;;
10465;SDS011;5280;42.600;23.556;2023-04-01T05:38:46;4.57;;;1.93;;
10465;SDS011;5280;42.600;23.556;2023-04-01T05:41:13;3.60;;;1.77;;
10465;SDS011;5280;42.600;23.556;2023-04-01T05:43:40;5.00;;;1.87;;
10465;SDS011;5280;42.600;23.556;2023-04-01T05:46:07;2.27;;;1.43;;
10465;SDS011;5280;42.600;23.556;2023-04-01T05:48:34;3.90;;;1.60;;
10465;SDS011;5280;42.600;23.556;2023-04-01T05:51:03;2.60;;;1.60;;
10465;SDS011;5280;42.600;23.556;2023-04-01T05:53:30;2.43;;;1.47;;
10465;SDS011;5280;42.600;23.556;2023-04-01T05:56:01;3.13;;;1.67;;
10465;SDS011;5280;42.600;23.556;2023-04-01T05:58:29;4.43;;;1.87;;
10465;SDS011;5280;42.600;23.556;2023-04-01T06:00:59;6.33;;;1.80;;
10465;SDS011;5280;42.600;23.556;2023-04-01T06:03:28;3.53;;;1.77;;
10465;SDS011;5280;42.600;23.556;2023-04-01T06:05:54;3.23;;;1.77;;
10465;SDS011;5280;42.600;23.556;2023-04-01T06:08:23;2.87;;;1.83;;
10465;SDS011;5280;42.600;23.556;2023-04-01T06:10:56;3.90;;;1.87;;
10465;SDS011;5280;42.600;23.556;2023-04-01T06:13:35;4.23;;;2.13;;
10465;SDS011;5280;42.600;23.556;2023-04-01T06:16:14;3.03;;;1.93;;
10465;SDS011;5280;42.600;23.556;2023-04-01T06:19:05;4.37;;;2.07;;
10465;SDS011;5280;42.600;23.556;2023-04-01T06:24:57;4.10;;;2.20;;
10465;SDS011;5280;42.600;23.556;2023-04-01T06:27:36;3.97;;;2.30;;
10465;SDS011;5280;42.600;23.556;2023-04-01T06:30:30;2.93;;;2.30;;
10465;SDS011;5280;42.600;23.556;2023-04-01T06:33:15;4.20;;;2.30;;
10465;SDS011;5280;42.600;23.556;2023-04-01T06:36:11;4.00;;;2.07;;
10465;SDS011;5280;42.600;23.556;2023-04-01T06:38:51;2.43;;;2.23;;
10465;SDS011;5280;42.600;23.556;2023-04-01T06:42:00;3.40;;;2.20;;
10465;SDS011;5280;42.600;23.556;2023-04-01T06:44:54;2.30;;;2.00;;
10465;SDS011;5280;42.600;23.556;2023-04-01T06:47:34;4.00;;;2.53;;
10465;SDS011;5280;42.600;23.556;2023-04-01T06:50:14;4.03;;;3.50;;
10465;SDS011;5280;42.600;23.556;2023-04-01T06:52:51;10.83;;;8.67;;
10465;SDS011;5280;42.600;23.556;2023-04-01T06:55:26;3.10;;;2.83;;
10465;SDS011;5280;42.600;23.556;2023-04-01T06:57:59;4.00;;;1.90;;
10465;SDS011;5280;42.600;23.556;2023-04-01T07:00:30;3.60;;;2.13;;
10465;SDS011;5280;42.600;23.556;2023-04-01T07:03:02;2.13;;;1.97;;
10465;SDS011;5280;42.600;23.556;2023-04-01T07:05:37;2.23;;;2.03;;
10465;SDS011;5280;42.600;23.556;2023-04-01T07:08:06;5.53;;;2.10;;
10465;SDS011;5280;42.600;23.556;2023-04-01T07:10:39;6.83;;;2.47;;
10465;SDS011;5280;42.600;23.556;2023-04-01T07:13:14;4.13;;;2.20;;
10465;SDS011;5280;42.600;23.556;2023-04-01T07:15:49;3.83;;;1.93;;
10465;SDS011;5280;42.600;23.556;2023-04-01T07:18:23;2.77;;;2.10;;
10465;SDS011;5280;42.600;23.556;2023-04-01T07:20:56;3.10;;;2.00;;
10465;SDS011;5280;42.600;23.556;2023-04-01T07:23:26;4.60;;;1.87;;
10465;SDS011;5280;42.600;23.556;2023-04-01T07:25:58;3.70;;;2.20;;
10465;SDS011;5280;42.600;23.556;2023-04-01T07:28:29;4.30;;;1.90;;
10465;SDS011;5280;42.600;23.556;2023-04-01T07:31:02;3.17;;;2.00;;
10465;SDS011;5280;42.600;23.556;2023-04-01T07:33:39;2.53;;;2.00;;
10465;SDS011;5280;42.600;23.556;2023-04-01T07:36:14;3.50;;;1.90;;
10465;SDS011;5280;42.600;23.556;2023-04-01T07:38:52;6.17;;;2.00;;
10465;SDS011;5280;42.600;23.556;2023-04-01T07:41:29;2.17;;;1.40;;
10465;SDS011;5280;42.600;23.556;2023-04-01T07:44:08;3.50;;;2.10;;
10465;SDS011;5280;42.600;23.556;2023-04-01T07:46:54;3.10;;;2.80;;
10465;SDS011;5280;42.600;23.556;2023-04-01T07:49:29;3.80;;;3.33;;
10465;SDS011;5280;42.600;23.556;2023-04-01T07:52:08;3.77;;;2.60;;
10465;SDS011;5280;42.600;23.556;2023-04-01T07:54:44;6.10;;;1.70;;
10465;SDS011;5280;42.600;23.556;2023-04-01T07:57:18;3.67;;;1.50;;
10465;SDS011;5280;42.600;23.556;2023-04-01T07:59:53;8.23;;;1.73;;
10465;SDS011;5280;42.600;23.556;2023-04-01T08:02:29;2.17;;;1.53;;
10465;SDS011;5280;42.600;23.556;2023-04-01T08:05:14;6.10;;;1.80;;
10465;SDS011;5280;42.600;23.556;2023-04-01T08:07:50;5.83;;;1.77;;
10465;SDS011;5280;42.600;23.556;2023-04-01T08:10:27;3.47;;;1.60;;
10465;SDS011;5280;42.600;23.556;2023-04-01T08:13:02;4.23;;;1.70;;
10465;SDS011;5280;42.600;23.556;2023-04-01T08:15:37;15.23;;;2.40;;
10465;SDS011;5280;42.600;23.556;2023-04-01T08:18:15;7.27;;;1.63;;
10465;SDS011;5280;42.600;23.556;2023-04-01T08:20:53;5.50;;;2.27;;
10465;SDS011;5280;42.600;23.556;2023-04-01T08:23:27;4.83;;;2.27;;
10465;SDS011;5280;42.600;23.556;2023-04-01T08:25:58;4.43;;;1.70;;
10465;SDS011;5280;42.600;23.556;2023-04-01T08:28:32;4.03;;;1.93;;
10465;SDS011;5280;42.600;23.556;2023-04-01T08:31:05;8.63;;;3.33;;
10465;SDS011;5280;42.600;23.556;2023-04-01T08:33:36;9.43;;;2.77;;
10465;SDS011;5280;42.600;23.556;2023-04-01T08:36:07;3.80;;;1.67;;
10465;SDS011;5280;42.600;23.556;2023-04-01T08:38:38;10.80;;;2.87;;
10465;SDS011;5280;42.600;23.556;2023-04-01T08:47:15;6.10;;;2.30;;
10465;SDS011;5280;42.600;23.556;2023-04-01T08:49:56;4.47;;;2.23;;
10465;SDS011;5280;42.600;23.556;2023-04-01T08:52:45;8.10;;;2.27;;
10465;SDS011;5280;42.600;23.556;2023-04-01T08:55:31;4.77;;;2.03;;
10465;SDS011;5280;42.600;23.556;2023-04-01T08:58:11;9.00;;;2.53;;
10465;SDS011;5280;42.600;23.556;2023-04-01T09:01:08;4.80;;;2.13;;
10465;SDS011;5280;42.600;23.556;2023-04-01T09:03:48;4.80;;;3.03;;
10465;SDS011;5280;42.600;23.556;2023-04-01T09:06:31;7.47;;;4.30;;
10465;SDS011;5280;42.600;23.556;2023-04-01T09:15:20;9.67;;;2.50;;
10465;SDS011;5280;42.600;23.556;2023-04-01T09:18:15;5.93;;;2.50;;
10465;SDS011;5280;42.600;23.556;2023-04-01T09:21:12;3.40;;;2.20;;
10465;SDS011;5280;42.600;23.556;2023-04-01T09:23:53;4.50;;;1.97;;
10465;SDS011;5280;42.600;23.556;2023-04-01T09:26:44;4.27;;;1.93;;
10465;SDS011;5280;42.600;23.556;2023-04-01T09:29:33;4.63;;;1.80;;
10465;SDS011;5280;42.600;23.556;2023-04-01T09:32:25;4.30;;;1.90;;
10465;SDS011;5280;42.600;23.556;2023-04-01T09:35:14;5.20;;;2.17;;
10465;SDS011;5280;42.600;23.556;2023-04-01T09:37:53;6.33;;;1.97;;
10465;SDS011;5280;42.600;23.556;2023-04-01T09:40:36;3.13;;;2.17;;
10465;SDS011;5280;42.600;23.556;2023-04-01T09:43:16;5.53;;;2.70;;
10465;SDS011;5280;42.600;23.556;2023-04-01T09:51:59;7.00;;;3.50;;
10465;SDS011;5280;42.600;23.556;2023-04-01T09:54:43;7.70;;;2.83;;
10465;SDS011;5280;42.600;23.556;2023-04-01T09:57:41;7.40;;;2.90;;
10465;SDS011;5280;42.600;23.556;2023-04-01T10:00:39;7.20;;;2.93;;
10465;SDS011;5280;42.600;23.556;2023-04-01T10:19:09;5.77;;;3.00;;
10465;SDS011;5280;42.600;23.556;2023-04-01T10:22:04;3.80;;;2.50;;
10465;SDS011;5280;42.600;23.556;2023-04-01T10:24:52;4.50;;;2.90;;
10465;SDS011;5280;42.600;23.556;2023-04-01T10:30:54;4.90;;;2.50;;
10465;SDS011;5280;42.600;23.556;2023-04-01T10:33:53;4.77;;;2.43;;
10465;SDS011;5280;42.600;23.556;2023-04-01T10:36:48;7.90;;;3.00;;
10465;SDS011;5280;42.600;23.556;2023-04-01T10:42:36;6.43;;;2.70;;
10465;SDS011;5280;42.600;23.556;2023-04-01T10:48:36;4.50;;;2.27;;
10465;SDS011;5280;42.600;23.556;2023-04-01T10:51:38;4.63;;;2.37;;
10465;SDS011;5280;42.600;23.556;2023-04-01T10:54:32;3.53;;;2.10;;
10465;SDS011;5280;42.600;23.556;2023-04-01T10:57:12;7.23;;;2.80;;
10465;SDS011;5280;42.600;23.556;2023-04-01T11:06:37;4.07;;;2.60;;
10465;SDS011;5280;42.600;23.556;2023-04-01T11:09:38;6.23;;;2.47;;
10465;SDS011;5280;42.600;23.556;2023-04-01T11:15:38;4.57;;;2.40;;
10465;SDS011;5280;42.600;23.556;2023-04-01T11:18:37;2.87;;;2.17;;
10465;SDS011;5280;42.600;23.556;2023-04-01T11:24:44;4.40;;;2.70;;
10465;SDS011;5280;42.600;23.556;2023-04-01T11:27:41;4.27;;;2.60;;
10465;SDS011;5280;42.600;23.556;2023-04-01T11:30:29;7.70;;;3.83;;
10465;SDS011;5280;42.600;23.556;2023-04-01T11:33:22;5.00;;;2.60;;
10465;SDS011;5280;42.600;23.556;2023-04-01T11:36:05;3.00;;;2.30;;
10465;SDS011;5280;42.600;23.556;2023-04-01T11:41:48;7.43;;;2.63;;
10465;SDS011;5280;42.600;23.556;2023-04-01T11:44:24;2.47;;;2.27;;
10465;SDS011;5280;42.600;23.556;2023-04-01T11:47:00;3.43;;;2.43;;
10465;SDS011;5280;42.600;23.556;2023-04-01T11:49:49;3.20;;;2.13;;
10465;SDS011;5280;42.600;23.556;2023-04-01T11:52:31;5.90;;;2.30;;
10465;SDS011;5280;42.600;23.556;2023-04-01T11:55:25;6.77;;;2.67;;
10465;SDS011;5280;42.600;23.556;2023-04-01T12:01:20;4.97;;;2.57;;
10465;SDS011;5280;42.600;23.556;2023-04-01T12:06:48;5.37;;;1.80;;
10465;SDS011;5280;42.600;23.556;2023-04-01T12:09:21;3.03;;;1.87;;
10465;SDS011;5280;42.600;23.556;2023-04-01T12:12:02;1.70;;;1.60;;
10465;SDS011;5280;42.600;23.556;2023-04-01T12:14:42;2.67;;;1.43;;
10465;SDS011;5280;42.600;23.556;2023-04-01T12:17:18;2.23;;;1.27;;
10465;SDS011;5280;42.600;23.556;2023-04-01T12:19:55;4.00;;;1.60;;
10465;SDS011;5280;42.600;23.556;2023-04-01T12:22:40;4.73;;;1.10;;
10465;SDS011;5280;42.600;23.556;2023-04-01T12:25:24;1.73;;;1.60;;
10465;SDS011;5280;42.600;23.556;2023-04-01T12:28:06;1.20;;;1.10;;
10465;SDS011;5280;42.600;23.556;2023-04-01T12:30:52;3.23;;;1.57;;
10465;SDS011;5280;42.600;23.556;2023-04-01T12:33:40;2.80;;;2.20;;
10465;SDS011;5280;42.600;23.556;2023-04-01T12:36:19;4.63;;;2.50;;
10465;SDS011;5280;42.600;23.556;2023-04-01T12:39:04;2.57;;;1.80;;
10465;SDS011;5280;42.600;23.556;2023-04-01T12:41:46;3.07;;;2.00;;
10465;SDS011;5280;42.600;23.556;2023-04-01T12:44:23;8.73;;;4.37;;
10465;SDS011;5280;42.600;23.556;2023-04-01T12:47:13;6.83;;;3.63;;
10465;SDS011;5280;42.600;23.556;2023-04-01T12:50:05;7.93;;;5.60;;
10465;SDS011;5280;42.600;23.556;2023-04-01T12:52:45;6.57;;;4.27;;
10465;SDS011;5280;42.600;23.556;2023-04-01T12:55:33;9.67;;;4.60;;
10465;SDS011;5280;42.600;23.556;2023-04-01T12:58:15;5.83;;;2.90;;
10465;SDS011;5280;42.600;23.556;2023-04-01T13:04:01;6.20;;;3.00;;
10465;SDS011;5280;42.600;23.556;2023-04-01T13:06:53;4.50;;;3.00;;
10465;SDS011;5280;42.600;23.556;2023-04-01T13:09:38;5.30;;;3.73;;
10465;SDS011;5280;42.600;23.556;2023-04-01T13:12:29;6.90;;;3.83;;
10465;SDS011;5280;42.600;23.556;2023-04-01T13:15:07;5.80;;;3.50;;
10465;SDS011;5280;42.600;23.556;2023-04-01T13:17:42;6.50;;;3.83;;
10465;SDS011;5280;42.600;23.556;2023-04-01T13:20:20;8.13;;;3.90;;
10465;SDS011;5280;42.600;23.556;2023-04-01T13:23:00;7.20;;;3.60;;
10465;SDS011;5280;42.600;23.556;2023-04-01T13:25:39;5.33;;;3.47;;
10465;SDS011;5280;42.600;23.556;2023-04-01T13:28:15;7.10;;;3.80;;
10465;SDS011;5280;42.600;23.556;2023-04-01T13:30:48;5.57;;;3.13;;
10465;SDS011;5280;42.600;23.556;2023-04-01T13:33:24;4.17;;;3.17;;
10465;SDS011;5280;42.600;23.556;2023-04-01T13:35:58;6.30;;;3.90;;
10465;SDS011;5280;42.600;23.556;2023-04-01T13:41:50;28.43;;;4.70;;
10465;SDS011;5280;42.600;23.556;2023-04-01T13:44:29;5.80;;;3.73;;
10465;SDS011;5280;42.600;23.556;2023-04-01T13:47:06;5.60;;;3.17;;
10465;SDS011;5280;42.600;23.556;2023-04-01T13:50:02;3.00;;;2.80;;
10465;SDS011;5280;42.600;23.556;2023-04-01T13:52:55;2.40;;;1.90;;
10465;SDS011;5280;42.600;23.556;2023-04-01T13:55:35;2.03;;;1.60;;
10465;SDS011;5280;42.600;23.556;2023-04-01T14:01:09;3.83;;;2.57;;
10465;SDS011;5280;42.600;23.556;2023-04-01T14:03:50;5.27;;;2.87;;
10465;SDS011;5280;42.600;23.556;2023-04-01T14:06:55;2.07;;;1.97;;
10465;SDS011;5280;42.600;23.556;2023-04-01T14:09:42;4.73;;;2.43;;
10465;SDS011;5280;42.600;23.556;2023-04-01T14:12:21;4.50;;;2.00;;
10465;SDS011;5280;42.600;23.556;2023-04-01T14:15:04;4.93;;;3.30;;
10465;SDS011;5280;42.600;23.556;2023-04-01T14:17:50;7.23;;;3.97;;
10465;SDS011;5280;42.600;23.556;2023-04-01T14:20:27;3.80;;;3.17;;
10465;SDS011;5280;42.600;23.556;2023-04-01T14:23:13;4.83;;;3.73;;
10465;SDS011;5280;42.600;23.556;2023-04-01T14:28:50;5.73;;;3.70;;
10465;SDS011;5280;42.600;23.556;2023-04-01T14:31:30;3.80;;;3.27;;
10465;SDS011;5280;42.600;23.556;2023-04-01T14:34:06;7.07;;;3.60;;
10465;SDS011;5280;42.600;23.556;2023-04-01T14:36:48;9.47;;;5.87;;
10465;SDS011;5280;42.600;23.556;2023-04-01T14:42:55;5.67;;;3.20;;
10465;SDS011;5280;42.600;23.556;2023-04-01T14:45:41;4.60;;;2.83;;
10465;SDS011;5280;42.600;23.556;2023-04-01T14:48:23;4.83;;;3.00;;
10465;SDS011;5280;42.600;23.556;2023-04-01T14:50:57;6.20;;;3.80;;
10465;SDS011;5280;42.600;23.556;2023-04-01T14:53:36;5.63;;;3.33;;
10465;SDS011;5280;42.600;23.556;2023-04-01T14:56:10;4.63;;;3.63;;
10465;SDS011;5280;42.600;23.556;2023-04-01T14:58:45;6.77;;;4.77;;
10465;SDS011;5280;42.600;23.556;2023-04-01T15:01:20;5.93;;;4.03;;
10465;SDS011;5280;42.600;23.556;2023-04-01T15:04:10;7.70;;;3.50;;
10465;SDS011;5280;42.600;23.556;2023-04-01T15:07:01;3.73;;;3.33;;
10465;SDS011;5280;42.600;23.556;2023-04-01T15:09:38;5.53;;;2.80;;
10465;SDS011;5280;42.600;23.556;2023-04-01T15:12:13;5.27;;;2.80;;
10465;SDS011;5280;42.600;23.556;2023-04-01T15:14:56;3.80;;;2.90;;
10465;SDS011;5280;42.600;23.556;2023-04-01T15:17:47;3.37;;;2.60;;
10465;SDS011;5280;42.600;23.556;2023-04-01T15:23:27;4.43;;;3.23;;
10465;SDS011;5280;42.600;23.556;2023-04-01T15:26:09;3.73;;;2.77;;
10465;SDS011;5280;42.600;23.556;2023-04-01T15:28:49;3.00;;;2.50;;
10465;SDS011;5280;42.600;23.556;2023-04-01T15:31:29;4.63;;;3.00;;
10465;SDS011;5280;42.600;23.556;2023-04-01T15:34:08;5.60;;;2.63;;
10465;SDS011;5280;42.600;23.556;2023-04-01T15:36:45;2.40;;;2.20;;
10465;SDS011;5280;42.600;23.556;2023-04-01T15:39:18;4.13;;;1.97;;
10465;SDS011;5280;42.600;23.556;2023-04-01T15:42:04;1.83;;;1.70;;
10465;SDS011;5280;42.600;23.556;2023-04-01T15:44:46;1.93;;;1.80;;
10465;SDS011;5280;42.600;23.556;2023-04-01T15:47:35;3.27;;;2.20;;
10465;SDS011;5280;42.600;23.556;2023-04-01T15:50:22;2.20;;;1.70;;
10465;SDS011;5280;42.600;23.556;2023-04-01T15:53:18;2.57;;;1.87;;
10465;SDS011;5280;42.600;23.556;2023-04-01T15:55:59;2.13;;;1.70;;
10465;SDS011;5280;42.600;23.556;2023-04-01T15:58:43;2.27;;;1.70;;
10465;SDS011;5280;42.600;23.556;2023-04-01T16:01:26;2.67;;;1.70;;
10465;SDS011;5280;42.600;23.556;2023-04-01T16:04:05;3.37;;;2.00;;
10465;SDS011;5280;42.600;23.556;2023-04-01T16:06:53;1.80;;;1.60;;
10465;SDS011;5280;42.600;23.556;2023-04-01T16:09:34;3.60;;;1.93;;
10465;SDS011;5280;42.600;23.556;2023-04-01T16:12:18;3.93;;;2.20;;
10465;SDS011;5280;42.600;23.556;2023-04-01T16:14:54;2.00;;;1.90;;
10465;SDS011;5280;42.600;23.556;2023-04-01T16:17:31;2.57;;;2.10;;
10465;SDS011;5280;42.600;23.556;2023-04-01T16:20:22;2.07;;;1.97;;
10465;SDS011;5280;42.600;23.556;2023-04-01T16:23:02;2.23;;;2.07;;
10465;SDS011;5280;42.600;23.556;2023-04-01T16:25:39;3.20;;;2.50;;
10465;SDS011;5280;42.600;23.556;2023-04-01T16:28:16;3.77;;;2.70;;
10465;SDS011;5280;42.600;23.556;2023-04-01T16:30:48;2.83;;;2.50;;
10465;SDS011;5280;42.600;23.556;2023-04-01T16:33:24;2.63;;;2.43;;
10465;SDS011;5280;42.600;23.556;2023-04-01T16:36:07;2.67;;;2.47;;
10465;SDS011;5280;42.600;23.556;2023-04-01T16:38:41;3.63;;;3.30;;
10465;SDS011;5280;42.600;23.556;2023-04-01T16:41:16;3.27;;;2.77;;
10465;SDS011;5280;42.600;23.556;2023-04-01T16:43:46;3.23;;;2.93;;
10465;SDS011;5280;42.600;23.556;2023-04-01T16:51:54;3.77;;;3.43;;
10465;SDS011;5280;42.600;23.556;2023-04-01T16:54:34;4.07;;;3.63;;
10465;SDS011;5280;42.600;23.556;2023-04-01T16:57:12;3.77;;;3.33;;
10465;SDS011;5280;42.600;23.556;2023-04-01T16:59:46;4.13;;;3.77;;
10465;SDS011;5280;42.600;23.556;2023-04-01T17:02:15;3.70;;;3.20;;
10465;SDS011;5280;42.600;23.556;2023-04-01T17:04:44;4.43;;;4.03;;
10465;SDS011;5280;42.600;23.556;2023-04-01T17:07:26;3.60;;;3.30;;
10465;SDS011;5280;42.600;23.556;2023-04-01T17:10:05;3.07;;;2.87;;
10465;SDS011;5280;42.600;23.556;2023-04-01T17:13:02;2.43;;;2.20;;
10465;SDS011;5280;42.600;23.556;2023-04-01T17:15:51;2.60;;;1.50;;
10465;SDS011;5280;42.600;23.556;2023-04-01T17:18:28;1.70;;;1.60;;
10465;SDS011;5280;42.600;23.556;2023-04-01T17:21:07;1.80;;;1.70;;